Glasgow, Montana
Current Conditions -  °F | °C
As of 6:53 PM on Saturday 20 Dec 2014 (Local Time) from KGGW Reporting Station
Clear Clear  
Wind Chill:   Ceiling: Unl
Heat Index:   Visibility: 10mi
Dew Point: -6°   Wind: 0mph
Humidity: 66%   Direction: NA
Pressure: 29.73"   Gusts: NA
Location:  48.2°N, 106.64°W
Report Text: KGGW 210153Z AUTO 00000KT 10SM CLR 00/M06 A2973 RMK AO2 SLP096 T00001056
Loading
Personal Weather Stations






























Interactive Weather Map New forecast layout! Learn more

10-Day Weather Forecast

Advertisements
Track Severe Weather on mobile